sensor_id;sensor_type;location;lat;lon;timestamp;P1;durP1;ratioP1;P2;durP2;ratioP2
49416;SDS011;35290;39.550;8.786;2023-06-14T00:00:09;4.95;;;2.85;;
49416;SDS011;35290;39.550;8.786;2023-06-14T00:02:37;7.03;;;3.00;;
49416;SDS011;35290;39.550;8.786;2023-06-14T00:05:04;7.88;;;3.22;;
49416;SDS011;35290;39.550;8.786;2023-06-14T00:07:35;4.75;;;2.75;;
49416;SDS011;35290;39.550;8.786;2023-06-14T00:10:02;6.00;;;2.40;;
49416;SDS011;35290;39.550;8.786;2023-06-14T00:12:29;5.35;;;3.10;;
49416;SDS011;35290;39.550;8.786;2023-06-14T00:14:55;4.90;;;2.50;;
49416;SDS011;35290;39.550;8.786;2023-06-14T00:17:21;7.75;;;2.80;;
49416;SDS011;35290;39.550;8.786;2023-06-14T00:19:46;7.45;;;2.70;;
49416;SDS011;35290;39.550;8.786;2023-06-14T00:22:12;5.28;;;2.50;;
49416;SDS011;35290;39.550;8.786;2023-06-14T00:24:37;6.30;;;2.85;;
49416;SDS011;35290;39.550;8.786;2023-06-14T00:27:03;5.85;;;2.72;;
49416;SDS011;35290;39.550;8.786;2023-06-14T00:29:28;9.27;;;2.80;;
49416;SDS011;35290;39.550;8.786;2023-06-14T00:31:54;9.32;;;2.70;;
49416;SDS011;35290;39.550;8.786;2023-06-14T00:34:19;6.72;;;2.85;;
49416;SDS011;35290;39.550;8.786;2023-06-14T00:36:45;7.18;;;2.67;;
49416;SDS011;35290;39.550;8.786;2023-06-14T00:39:10;6.45;;;2.53;;
49416;SDS011;35290;39.550;8.786;2023-06-14T00:41:37;6.90;;;3.05;;
49416;SDS011;35290;39.550;8.786;2023-06-14T00:44:02;6.57;;;2.70;;
49416;SDS011;35290;39.550;8.786;2023-06-14T00:46:28;7.80;;;2.67;;
49416;SDS011;35290;39.550;8.786;2023-06-14T00:48:54;7.15;;;3.45;;
49416;SDS011;35290;39.550;8.786;2023-06-14T00:51:20;6.25;;;2.70;;
49416;SDS011;35290;39.550;8.786;2023-06-14T00:53:46;7.07;;;2.67;;
49416;SDS011;35290;39.550;8.786;2023-06-14T00:56:12;7.45;;;2.85;;
49416;SDS011;35290;39.550;8.786;2023-06-14T00:58:40;5.85;;;2.90;;
49416;SDS011;35290;39.550;8.786;2023-06-14T01:01:06;9.10;;;3.20;;
49416;SDS011;35290;39.550;8.786;2023-06-14T01:03:32;10.65;;;2.97;;
49416;SDS011;35290;39.550;8.786;2023-06-14T01:08:47;7.53;;;3.10;;
49416;SDS011;35290;39.550;8.786;2023-06-14T01:11:22;6.95;;;3.38;;
49416;SDS011;35290;39.550;8.786;2023-06-14T01:13:52;5.38;;;3.40;;
49416;SDS011;35290;39.550;8.786;2023-06-14T01:16:18;9.00;;;3.50;;
49416;SDS011;35290;39.550;8.786;2023-06-14T01:18:45;5.45;;;2.88;;
49416;SDS011;35290;39.550;8.786;2023-06-14T01:21:20;4.72;;;2.80;;
49416;SDS011;35290;39.550;8.786;2023-06-14T01:23:49;8.32;;;3.50;;
49416;SDS011;35290;39.550;8.786;2023-06-14T01:26:21;5.95;;;2.95;;
49416;SDS011;35290;39.550;8.786;2023-06-14T01:28:47;7.78;;;3.58;;
49416;SDS011;35290;39.550;8.786;2023-06-14T01:31:16;6.93;;;3.40;;
49416;SDS011;35290;39.550;8.786;2023-06-14T01:33:42;5.43;;;3.47;;
49416;SDS011;35290;39.550;8.786;2023-06-14T01:36:09;10.38;;;3.75;;
49416;SDS011;35290;39.550;8.786;2023-06-14T01:38:34;8.60;;;3.40;;
49416;SDS011;35290;39.550;8.786;2023-06-14T01:41:01;6.20;;;3.25;;
49416;SDS011;35290;39.550;8.786;2023-06-14T01:43:28;9.85;;;3.38;;
49416;SDS011;35290;39.550;8.786;2023-06-14T01:45:55;6.78;;;3.00;;
49416;SDS011;35290;39.550;8.786;2023-06-14T01:48:21;7.63;;;3.40;;
49416;SDS011;35290;39.550;8.786;2023-06-14T01:50:47;8.95;;;3.58;;
49416;SDS011;35290;39.550;8.786;2023-06-14T01:53:13;5.03;;;3.00;;
49416;SDS011;35290;39.550;8.786;2023-06-14T01:55:39;5.75;;;3.20;;
49416;SDS011;35290;39.550;8.786;2023-06-14T01:58:09;10.48;;;3.70;;
49416;SDS011;35290;39.550;8.786;2023-06-14T02:00:35;7.85;;;3.63;;
49416;SDS011;35290;39.550;8.786;2023-06-14T02:03:01;6.63;;;3.20;;
49416;SDS011;35290;39.550;8.786;2023-06-14T02:05:29;8.43;;;3.40;;
49416;SDS011;35290;39.550;8.786;2023-06-14T02:07:55;4.55;;;3.05;;
49416;SDS011;35290;39.550;8.786;2023-06-14T02:10:20;4.95;;;2.97;;
49416;SDS011;35290;39.550;8.786;2023-06-14T02:12:46;7.80;;;3.40;;
49416;SDS011;35290;39.550;8.786;2023-06-14T02:15:12;6.28;;;3.58;;
49416;SDS011;35290;39.550;8.786;2023-06-14T02:17:44;8.18;;;3.58;;
49416;SDS011;35290;39.550;8.786;2023-06-14T02:20:14;7.57;;;3.20;;
49416;SDS011;35290;39.550;8.786;2023-06-14T02:22:40;6.85;;;3.33;;
49416;SDS011;35290;39.550;8.786;2023-06-14T02:25:05;6.90;;;3.63;;
49416;SDS011;35290;39.550;8.786;2023-06-14T02:27:32;7.53;;;3.78;;
49416;SDS011;35290;39.550;8.786;2023-06-14T02:29:58;10.02;;;3.97;;
49416;SDS011;35290;39.550;8.786;2023-06-14T02:32:24;6.35;;;3.28;;
49416;SDS011;35290;39.550;8.786;2023-06-14T02:34:49;9.15;;;4.10;;
49416;SDS011;35290;39.550;8.786;2023-06-14T02:37:18;9.57;;;3.97;;
49416;SDS011;35290;39.550;8.786;2023-06-14T02:39:43;11.90;;;4.20;;
49416;SDS011;35290;39.550;8.786;2023-06-14T02:42:09;8.32;;;3.78;;
49416;SDS011;35290;39.550;8.786;2023-06-14T02:44:35;6.78;;;3.65;;
49416;SDS011;35290;39.550;8.786;2023-06-14T02:47:01;8.57;;;4.28;;
49416;SDS011;35290;39.550;8.786;2023-06-14T02:49:26;5.88;;;3.35;;
49416;SDS011;35290;39.550;8.786;2023-06-14T02:51:52;8.05;;;4.20;;
49416;SDS011;35290;39.550;8.786;2023-06-14T02:54:17;8.65;;;3.63;;
49416;SDS011;35290;39.550;8.786;2023-06-14T02:56:43;9.20;;;4.30;;
49416;SDS011;35290;39.550;8.786;2023-06-14T02:59:09;9.90;;;3.70;;
49416;SDS011;35290;39.550;8.786;2023-06-14T03:01:34;7.55;;;3.75;;
49416;SDS011;35290;39.550;8.786;2023-06-14T03:04:01;7.15;;;3.92;;
49416;SDS011;35290;39.550;8.786;2023-06-14T03:06:28;6.35;;;3.78;;
49416;SDS011;35290;39.550;8.786;2023-06-14T03:08:56;9.30;;;3.55;;
49416;SDS011;35290;39.550;8.786;2023-06-14T03:11:25;8.98;;;3.38;;
49416;SDS011;35290;39.550;8.786;2023-06-14T03:13:51;10.18;;;3.95;;
49416;SDS011;35290;39.550;8.786;2023-06-14T03:16:17;8.30;;;3.35;;
49416;SDS011;35290;39.550;8.786;2023-06-14T03:18:48;6.72;;;3.42;;
49416;SDS011;35290;39.550;8.786;2023-06-14T03:21:14;8.30;;;3.85;;
49416;SDS011;35290;39.550;8.786;2023-06-14T03:23:41;8.13;;;3.45;;
49416;SDS011;35290;39.550;8.786;2023-06-14T03:26:07;7.90;;;3.40;;
49416;SDS011;35290;39.550;8.786;2023-06-14T03:28:33;6.88;;;3.47;;
49416;SDS011;35290;39.550;8.786;2023-06-14T03:30:58;7.00;;;3.13;;
49416;SDS011;35290;39.550;8.786;2023-06-14T03:33:24;8.07;;;3.75;;
49416;SDS011;35290;39.550;8.786;2023-06-14T03:35:50;10.68;;;4.05;;
49416;SDS011;35290;39.550;8.786;2023-06-14T03:38:17;9.07;;;3.95;;
49416;SDS011;35290;39.550;8.786;2023-06-14T03:40:42;8.65;;;4.00;;
49416;SDS011;35290;39.550;8.786;2023-06-14T03:43:08;8.90;;;4.22;;
49416;SDS011;35290;39.550;8.786;2023-06-14T03:45:33;12.50;;;3.95;;
49416;SDS011;35290;39.550;8.786;2023-06-14T03:47:59;7.72;;;4.10;;
49416;SDS011;35290;39.550;8.786;2023-06-14T03:50:25;7.05;;;3.40;;
49416;SDS011;35290;39.550;8.786;2023-06-14T03:52:52;9.57;;;4.03;;
49416;SDS011;35290;39.550;8.786;2023-06-14T03:55:17;8.10;;;4.20;;
49416;SDS011;35290;39.550;8.786;2023-06-14T03:57:43;8.60;;;3.50;;
49416;SDS011;35290;39.550;8.786;2023-06-14T04:00:09;6.45;;;4.15;;
49416;SDS011;35290;39.550;8.786;2023-06-14T04:02:35;9.57;;;3.65;;
49416;SDS011;35290;39.550;8.786;2023-06-14T04:05:01;7.93;;;3.78;;
49416;SDS011;35290;39.550;8.786;2023-06-14T04:07:28;9.68;;;4.32;;
49416;SDS011;35290;39.550;8.786;2023-06-14T04:09:54;8.90;;;3.67;;
49416;SDS011;35290;39.550;8.786;2023-06-14T04:12:20;10.40;;;3.42;;
49416;SDS011;35290;39.550;8.786;2023-06-14T04:14:45;10.45;;;3.88;;
49416;SDS011;35290;39.550;8.786;2023-06-14T04:17:11;10.85;;;4.20;;
49416;SDS011;35290;39.550;8.786;2023-06-14T04:19:37;6.20;;;3.67;;
49416;SDS011;35290;39.550;8.786;2023-06-14T04:22:02;13.90;;;4.20;;
49416;SDS011;35290;39.550;8.786;2023-06-14T04:24:28;9.20;;;4.03;;
49416;SDS011;35290;39.550;8.786;2023-06-14T04:26:57;10.93;;;4.03;;
49416;SDS011;35290;39.550;8.786;2023-06-14T04:29:23;11.13;;;4.05;;
49416;SDS011;35290;39.550;8.786;2023-06-14T04:31:51;7.75;;;3.42;;
49416;SDS011;35290;39.550;8.786;2023-06-14T04:34:18;10.18;;;3.63;;
49416;SDS011;35290;39.550;8.786;2023-06-14T04:36:44;13.30;;;4.30;;
49416;SDS011;35290;39.550;8.786;2023-06-14T04:39:18;17.73;;;4.68;;
49416;SDS011;35290;39.550;8.786;2023-06-14T04:41:45;11.35;;;3.88;;
49416;SDS011;35290;39.550;8.786;2023-06-14T04:44:12;13.68;;;4.38;;
49416;SDS011;35290;39.550;8.786;2023-06-14T04:46:38;13.80;;;4.50;;
49416;SDS011;35290;39.550;8.786;2023-06-14T04:49:11;11.35;;;3.95;;
49416;SDS011;35290;39.550;8.786;2023-06-14T04:51:39;10.80;;;4.35;;
49416;SDS011;35290;39.550;8.786;2023-06-14T04:54:05;11.32;;;4.00;;
49416;SDS011;35290;39.550;8.786;2023-06-14T04:56:35;12.60;;;4.68;;
49416;SDS011;35290;39.550;8.786;2023-06-14T04:59:04;12.13;;;4.97;;
49416;SDS011;35290;39.550;8.786;2023-06-14T05:01:30;10.80;;;3.92;;
49416;SDS011;35290;39.550;8.786;2023-06-14T05:03:57;9.95;;;3.80;;
49416;SDS011;35290;39.550;8.786;2023-06-14T05:06:23;9.25;;;3.70;;
49416;SDS011;35290;39.550;8.786;2023-06-14T05:08:48;9.73;;;3.65;;
49416;SDS011;35290;39.550;8.786;2023-06-14T05:11:14;11.07;;;4.07;;
49416;SDS011;35290;39.550;8.786;2023-06-14T05:13:40;9.43;;;3.75;;
49416;SDS011;35290;39.550;8.786;2023-06-14T05:16:06;11.18;;;4.25;;
49416;SDS011;35290;39.550;8.786;2023-06-14T05:18:32;9.70;;;3.70;;
49416;SDS011;35290;39.550;8.786;2023-06-14T05:21:00;9.50;;;3.80;;
49416;SDS011;35290;39.550;8.786;2023-06-14T05:23:26;11.57;;;3.72;;
49416;SDS011;35290;39.550;8.786;2023-06-14T05:25:51;12.35;;;4.45;;
49416;SDS011;35290;39.550;8.786;2023-06-14T05:28:17;9.82;;;3.90;;
49416;SDS011;35290;39.550;8.786;2023-06-14T05:30:42;14.65;;;4.22;;
49416;SDS011;35290;39.550;8.786;2023-06-14T05:33:08;9.15;;;3.70;;
49416;SDS011;35290;39.550;8.786;2023-06-14T05:35:34;10.35;;;4.35;;
49416;SDS011;35290;39.550;8.786;2023-06-14T05:38:00;10.93;;;3.63;;
49416;SDS011;35290;39.550;8.786;2023-06-14T05:40:25;10.38;;;3.78;;
49416;SDS011;35290;39.550;8.786;2023-06-14T05:42:50;10.32;;;3.72;;
49416;SDS011;35290;39.550;8.786;2023-06-14T05:45:16;10.77;;;3.95;;
49416;SDS011;35290;39.550;8.786;2023-06-14T05:47:42;9.90;;;3.55;;
49416;SDS011;35290;39.550;8.786;2023-06-14T05:50:07;13.30;;;4.50;;
49416;SDS011;35290;39.550;8.786;2023-06-14T05:52:34;12.38;;;3.78;;
49416;SDS011;35290;39.550;8.786;2023-06-14T05:55:00;14.48;;;4.40;;
49416;SDS011;35290;39.550;8.786;2023-06-14T05:57:26;14.05;;;4.40;;
49416;SDS011;35290;39.550;8.786;2023-06-14T05:59:52;9.63;;;4.25;;
49416;SDS011;35290;39.550;8.786;2023-06-14T06:02:17;15.20;;;4.40;;
49416;SDS011;35290;39.550;8.786;2023-06-14T06:04:43;15.25;;;4.97;;
49416;SDS011;35290;39.550;8.786;2023-06-14T06:07:08;10.57;;;4.72;;
49416;SDS011;35290;39.550;8.786;2023-06-14T06:09:34;13.30;;;4.93;;
49416;SDS011;35290;39.550;8.786;2023-06-14T06:11:59;10.82;;;5.10;;
49416;SDS011;35290;39.550;8.786;2023-06-14T06:14:25;11.07;;;4.80;;
49416;SDS011;35290;39.550;8.786;2023-06-14T06:16:50;12.07;;;4.95;;
49416;SDS011;35290;39.550;8.786;2023-06-14T06:19:17;12.48;;;4.90;;
49416;SDS011;35290;39.550;8.786;2023-06-14T06:21:43;14.10;;;4.80;;
49416;SDS011;35290;39.550;8.786;2023-06-14T06:24:08;12.68;;;4.78;;
49416;SDS011;35290;39.550;8.786;2023-06-14T06:26:34;10.70;;;4.43;;
49416;SDS011;35290;39.550;8.786;2023-06-14T06:29:00;15.88;;;5.60;;
49416;SDS011;35290;39.550;8.786;2023-06-14T06:31:25;10.70;;;4.70;;
49416;SDS011;35290;39.550;8.786;2023-06-14T06:33:52;10.85;;;4.40;;
49416;SDS011;35290;39.550;8.786;2023-06-14T06:36:19;11.13;;;4.95;;
49416;SDS011;35290;39.550;8.786;2023-06-14T06:38:46;19.25;;;5.10;;
49416;SDS011;35290;39.550;8.786;2023-06-14T06:41:12;13.20;;;4.72;;
49416;SDS011;35290;39.550;8.786;2023-06-14T06:43:37;11.13;;;4.65;;
49416;SDS011;35290;39.550;8.786;2023-06-14T06:46:03;16.75;;;5.05;;
49416;SDS011;35290;39.550;8.786;2023-06-14T06:48:28;13.57;;;4.70;;
49416;SDS011;35290;39.550;8.786;2023-06-14T06:50:54;9.75;;;4.43;;
49416;SDS011;35290;39.550;8.786;2023-06-14T06:53:20;16.35;;;5.15;;
49416;SDS011;35290;39.550;8.786;2023-06-14T06:55:45;14.25;;;4.28;;
49416;SDS011;35290;39.550;8.786;2023-06-14T06:58:13;12.90;;;5.13;;
49416;SDS011;35290;39.550;8.786;2023-06-14T07:00:39;11.88;;;4.82;;
49416;SDS011;35290;39.550;8.786;2023-06-14T07:03:04;13.60;;;5.00;;
49416;SDS011;35290;39.550;8.786;2023-06-14T07:05:30;14.15;;;5.32;;
49416;SDS011;35290;39.550;8.786;2023-06-14T07:07:56;14.38;;;5.13;;
49416;SDS011;35290;39.550;8.786;2023-06-14T07:10:22;13.20;;;5.03;;
49416;SDS011;35290;39.550;8.786;2023-06-14T07:12:47;17.10;;;6.30;;
49416;SDS011;35290;39.550;8.786;2023-06-14T07:15:12;18.15;;;6.65;;
49416;SDS011;35290;39.550;8.786;2023-06-14T07:17:38;12.63;;;5.68;;
49416;SDS011;35290;39.550;8.786;2023-06-14T07:20:04;10.93;;;4.80;;
49416;SDS011;35290;39.550;8.786;2023-06-14T07:22:39;12.88;;;4.60;;
49416;SDS011;35290;39.550;8.786;2023-06-14T07:25:11;12.30;;;4.90;;
49416;SDS011;35290;39.550;8.786;2023-06-14T07:27:39;13.10;;;4.43;;
49416;SDS011;35290;39.550;8.786;2023-06-14T07:30:06;11.50;;;4.60;;
49416;SDS011;35290;39.550;8.786;2023-06-14T07:32:32;12.23;;;4.38;;
49416;SDS011;35290;39.550;8.786;2023-06-14T07:34:58;10.20;;;4.50;;
49416;SDS011;35290;39.550;8.786;2023-06-14T07:37:23;11.30;;;4.72;;
49416;SDS011;35290;39.550;8.786;2023-06-14T07:39:49;7.00;;;3.65;;
49416;SDS011;35290;39.550;8.786;2023-06-14T07:42:15;7.35;;;3.17;;
49416;SDS011;35290;39.550;8.786;2023-06-14T07:44:40;8.93;;;3.50;;
49416;SDS011;35290;39.550;8.786;2023-06-14T07:47:06;11.82;;;3.40;;
49416;SDS011;35290;39.550;8.786;2023-06-14T07:49:31;8.70;;;3.15;;
49416;SDS011;35290;39.550;8.786;2023-06-14T07:51:57;8.63;;;3.35;;
49416;SDS011;35290;39.550;8.786;2023-06-14T07:54:23;11.38;;;4.00;;
49416;SDS011;35290;39.550;8.786;2023-06-14T07:56:51;9.75;;;3.10;;
49416;SDS011;35290;39.550;8.786;2023-06-14T07:59:17;7.68;;;3.65;;
49416;SDS011;35290;39.550;8.786;2023-06-14T08:01:43;8.50;;;3.53;;
49416;SDS011;35290;39.550;8.786;2023-06-14T08:04:12;7.53;;;3.67;;
49416;SDS011;35290;39.550;8.786;2023-06-14T08:06:38;7.50;;;3.40;;
49416;SDS011;35290;39.550;8.786;2023-06-14T08:09:04;9.15;;;3.50;;
49416;SDS011;35290;39.550;8.786;2023-06-14T08:11:30;9.00;;;2.80;;
49416;SDS011;35290;39.550;8.786;2023-06-14T08:13:56;7.78;;;3.30;;
49416;SDS011;35290;39.550;8.786;2023-06-14T08:16:21;6.18;;;2.55;;
49416;SDS011;35290;39.550;8.786;2023-06-14T08:18:47;9.80;;;2.97;;
49416;SDS011;35290;39.550;8.786;2023-06-14T08:21:13;5.53;;;2.70;;
49416;SDS011;35290;39.550;8.786;2023-06-14T08:23:40;6.93;;;2.40;;
49416;SDS011;35290;39.550;8.786;2023-06-14T08:26:06;9.85;;;2.90;;
49416;SDS011;35290;39.550;8.786;2023-06-14T08:28:32;7.50;;;2.53;;
49416;SDS011;35290;39.550;8.786;2023-06-14T08:30:57;6.72;;;2.72;;
49416;SDS011;35290;39.550;8.786;2023-06-14T08:33:23;9.38;;;2.28;;
49416;SDS011;35290;39.550;8.786;2023-06-14T08:35:48;7.53;;;2.67;;
49416;SDS011;35290;39.550;8.786;2023-06-14T08:38:14;8.55;;;2.45;;
49416;SDS011;35290;39.550;8.786;2023-06-14T08:40:40;6.88;;;2.63;;
49416;SDS011;35290;39.550;8.786;2023-06-14T08:43:07;8.65;;;2.25;;
49416;SDS011;35290;39.550;8.786;2023-06-14T08:45:32;4.60;;;2.50;;
49416;SDS011;35290;39.550;8.786;2023-06-14T08:47:58;5.63;;;2.20;;
49416;SDS011;35290;39.550;8.786;2023-06-14T08:50:25;5.60;;;2.30;;
49416;SDS011;35290;39.550;8.786;2023-06-14T08:52:55;7.03;;;2.70;;
49416;SDS011;35290;39.550;8.786;2023-06-14T08:55:25;6.65;;;2.30;;
49416;SDS011;35290;39.550;8.786;2023-06-14T08:57:53;4.47;;;2.30;;
49416;SDS011;35290;39.550;8.786;2023-06-14T09:00:21;8.60;;;2.40;;
49416;SDS011;35290;39.550;8.786;2023-06-14T09:02:47;3.90;;;2.20;;
49416;SDS011;35290;39.550;8.786;2023-06-14T09:05:13;3.97;;;2.13;;
49416;SDS011;35290;39.550;8.786;2023-06-14T09:07:42;5.65;;;2.55;;
49416;SDS011;35290;39.550;8.786;2023-06-14T09:10:08;5.05;;;2.33;;
49416;SDS011;35290;39.550;8.786;2023-06-14T09:12:35;5.22;;;2.40;;
49416;SDS011;35290;39.550;8.786;2023-06-14T09:15:01;3.60;;;2.25;;
49416;SDS011;35290;39.550;8.786;2023-06-14T09:17:32;6.45;;;2.40;;
49416;SDS011;35290;39.550;8.786;2023-06-14T09:19:59;5.13;;;2.42;;
49416;SDS011;35290;39.550;8.786;2023-06-14T09:22:24;5.45;;;2.50;;
49416;SDS011;35290;39.550;8.786;2023-06-14T09:24:51;7.57;;;2.50;;
49416;SDS011;35290;39.550;8.786;2023-06-14T09:27:19;6.63;;;2.70;;
49416;SDS011;35290;39.550;8.786;2023-06-14T09:29:44;8.73;;;2.80;;
49416;SDS011;35290;39.550;8.786;2023-06-14T09:32:10;6.45;;;2.63;;
49416;SDS011;35290;39.550;8.786;2023-06-14T09:34:35;8.38;;;2.53;;
49416;SDS011;35290;39.550;8.786;2023-06-14T09:37:01;7.47;;;2.78;;
49416;SDS011;35290;39.550;8.786;2023-06-14T09:39:26;7.75;;;2.70;;
49416;SDS011;35290;39.550;8.786;2023-06-14T09:41:52;10.32;;;2.83;;
49416;SDS011;35290;39.550;8.786;2023-06-14T09:44:17;6.07;;;3.00;;
49416;SDS011;35290;39.550;8.786;2023-06-14T09:46:43;6.10;;;2.83;;
49416;SDS011;35290;39.550;8.786;2023-06-14T09:49:09;7.35;;;3.30;;
49416;SDS011;35290;39.550;8.786;2023-06-14T09:51:35;10.23;;;2.95;;
49416;SDS011;35290;39.550;8.786;2023-06-14T09:54:05;8.50;;;3.10;;
49416;SDS011;35290;39.550;8.786;2023-06-14T09:56:36;11.63;;;2.70;;
49416;SDS011;35290;39.550;8.786;2023-06-14T09:59:04;6.97;;;2.80;;
49416;SDS011;35290;39.550;8.786;2023-06-14T10:01:30;6.55;;;3.20;;
49416;SDS011;35290;39.550;8.786;2023-06-14T10:04:03;8.63;;;3.00;;
49416;SDS011;35290;39.550;8.786;2023-06-14T10:06:30;5.50;;;2.97;;
49416;SDS011;35290;39.550;8.786;2023-06-14T10:08:58;10.23;;;3.40;;
49416;SDS011;35290;39.550;8.786;2023-06-14T10:11:27;7.03;;;3.47;;
49416;SDS011;35290;39.550;8.786;2023-06-14T10:13:54;13.90;;;5.35;;
49416;SDS011;35290;39.550;8.786;2023-06-14T10:16:23;11.15;;;4.63;;
49416;SDS011;35290;39.550;8.786;2023-06-14T10:24:44;6.40;;;3.30;;
49416;SDS011;35290;39.550;8.786;2023-06-14T10:27:10;11.00;;;5.72;;
49416;SDS011;35290;39.550;8.786;2023-06-14T10:32:21;7.30;;;3.80;;
49416;SDS011;35290;39.550;8.786;2023-06-14T10:34:59;8.45;;;3.30;;
49416;SDS011;35290;39.550;8.786;2023-06-14T10:37:25;5.97;;;2.28;;
49416;SDS011;35290;39.550;8.786;2023-06-14T10:39:52;2.85;;;1.90;;
49416;SDS011;35290;39.550;8.786;2023-06-14T10:42:18;9.68;;;1.60;;
49416;SDS011;35290;39.550;8.786;2023-06-14T10:47:25;4.05;;;1.50;;
49416;SDS011;35290;39.550;8.786;2023-06-14T10:49:52;3.38;;;1.40;;
49416;SDS011;35290;39.550;8.786;2023-06-14T10:52:40;3.72;;;1.48;;
49416;SDS011;35290;39.550;8.786;2023-06-14T10:55:16;4.78;;;1.40;;
49416;SDS011;35290;39.550;8.786;2023-06-14T11:00:16;4.63;;;1.60;;
49416;SDS011;35290;39.550;8.786;2023-06-14T11:02:46;2.15;;;1.30;;
49416;SDS011;35290;39.550;8.786;2023-06-14T11:05:26;3.40;;;1.65;;
49416;SDS011;35290;39.550;8.786;2023-06-14T11:13:06;3.45;;;1.90;;
49416;SDS011;35290;39.550;8.786;2023-06-14T11:15:33;3.60;;;1.65;;
49416;SDS011;35290;39.550;8.786;2023-06-14T11:18:00;4.80;;;1.58;;
49416;SDS011;35290;39.550;8.786;2023-06-14T11:20:30;4.25;;;1.60;;
49416;SDS011;35290;39.550;8.786;2023-06-14T11:22:56;2.80;;;1.55;;
49416;SDS011;35290;39.550;8.786;2023-06-14T11:25:21;5.40;;;1.80;;
49416;SDS011;35290;39.550;8.786;2023-06-14T11:27:49;3.38;;;2.00;;
49416;SDS011;35290;39.550;8.786;2023-06-14T11:30:15;4.60;;;1.70;;
49416;SDS011;35290;39.550;8.786;2023-06-14T11:32:41;4.72;;;1.80;;
49416;SDS011;35290;39.550;8.786;2023-06-14T11:35:07;3.78;;;1.60;;
49416;SDS011;35290;39.550;8.786;2023-06-14T11:37:34;2.28;;;1.58;;
49416;SDS011;35290;39.550;8.786;2023-06-14T11:40:00;4.13;;;1.70;;
49416;SDS011;35290;39.550;8.786;2023-06-14T11:42:26;5.22;;;2.13;;
49416;SDS011;35290;39.550;8.786;2023-06-14T11:44:53;2.75;;;2.20;;
49416;SDS011;35290;39.550;8.786;2023-06-14T11:47:19;3.90;;;2.10;;
49416;SDS011;35290;39.550;8.786;2023-06-14T11:49:45;3.83;;;2.13;;
49416;SDS011;35290;39.550;8.786;2023-06-14T11:52:11;8.15;;;2.60;;
49416;SDS011;35290;39.550;8.786;2023-06-14T11:54:37;4.00;;;1.90;;
49416;SDS011;35290;39.550;8.786;2023-06-14T11:57:03;4.70;;;2.20;;
49416;SDS011;35290;39.550;8.786;2023-06-14T11:59:30;3.40;;;1.85;;
49416;SDS011;35290;39.550;8.786;2023-06-14T12:01:56;2.65;;;1.52;;
49416;SDS011;35290;39.550;8.786;2023-06-14T12:04:28;4.68;;;1.67;;
49416;SDS011;35290;39.550;8.786;2023-06-14T12:06:54;2.92;;;1.95;;
49416;SDS011;35290;39.550;8.786;2023-06-14T12:09:21;5.07;;;1.60;;
49416;SDS011;35290;39.550;8.786;2023-06-14T12:11:51;3.03;;;1.60;;
49416;SDS011;35290;39.550;8.786;2023-06-14T12:14:30;2.38;;;1.40;;
49416;SDS011;35290;39.550;8.786;2023-06-14T12:17:06;4.97;;;2.20;;
49416;SDS011;35290;39.550;8.786;2023-06-14T12:19:32;6.75;;;3.05;;
49416;SDS011;35290;39.550;8.786;2023-06-14T12:21:59;7.15;;;2.97;;
49416;SDS011;35290;39.550;8.786;2023-06-14T12:24:28;3.70;;;1.90;;
49416;SDS011;35290;39.550;8.786;2023-06-14T12:26:54;2.33;;;1.73;;
49416;SDS011;35290;39.550;8.786;2023-06-14T12:29:22;4.57;;;2.00;;
49416;SDS011;35290;39.550;8.786;2023-06-14T12:31:49;4.22;;;1.80;;
49416;SDS011;35290;39.550;8.786;2023-06-14T12:34:14;5.30;;;1.70;;
49416;SDS011;35290;39.550;8.786;2023-06-14T12:36:40;5.15;;;1.40;;
49416;SDS011;35290;39.550;8.786;2023-06-14T12:39:09;2.80;;;1.40;;
49416;SDS011;35290;39.550;8.786;2023-06-14T12:41:35;2.78;;;1.60;;
49416;SDS011;35290;39.550;8.786;2023-06-14T12:44:02;3.78;;;1.88;;
49416;SDS011;35290;39.550;8.786;2023-06-14T12:46:30;7.15;;;1.50;;
49416;SDS011;35290;39.550;8.786;2023-06-14T12:48:56;2.42;;;1.35;;
49416;SDS011;35290;39.550;8.786;2023-06-14T12:51:22;6.78;;;1.50;;
49416;SDS011;35290;39.550;8.786;2023-06-14T12:53:48;2.67;;;2.03;;
49416;SDS011;35290;39.550;8.786;2023-06-14T12:56:14;4.00;;;1.70;;
49416;SDS011;35290;39.550;8.786;2023-06-14T12:58:41;1.88;;;1.70;;
49416;SDS011;35290;39.550;8.786;2023-06-14T13:01:07;3.85;;;1.40;;
49416;SDS011;35290;39.550;8.786;2023-06-14T13:03:32;4.25;;;1.60;;
49416;SDS011;35290;39.550;8.786;2023-06-14T13:05:59;2.97;;;1.40;;
49416;SDS011;35290;39.550;8.786;2023-06-14T13:08:25;1.98;;;1.35;;
49416;SDS011;35290;39.550;8.786;2023-06-14T13:10:51;3.63;;;1.30;;
49416;SDS011;35290;39.550;8.786;2023-06-14T13:13:17;3.75;;;1.55;;
49416;SDS011;35290;39.550;8.786;2023-06-14T13:15:42;1.60;;;1.35;;
49416;SDS011;35290;39.550;8.786;2023-06-14T13:18:09;4.28;;;1.70;;
49416;SDS011;35290;39.550;8.786;2023-06-14T13:20:34;2.45;;;1.30;;
49416;SDS011;35290;39.550;8.786;2023-06-14T13:23:00;2.53;;;1.35;;
49416;SDS011;35290;39.550;8.786;2023-06-14T13:25:27;4.68;;;1.60;;
49416;SDS011;35290;39.550;8.786;2023-06-14T13:27:52;3.35;;;1.50;;
49416;SDS011;35290;39.550;8.786;2023-06-14T13:30:18;3.53;;;2.00;;
49416;SDS011;35290;39.550;8.786;2023-06-14T13:32:44;3.30;;;1.63;;
49416;SDS011;35290;39.550;8.786;2023-06-14T13:35:09;2.55;;;1.75;;
49416;SDS011;35290;39.550;8.786;2023-06-14T13:37:35;5.60;;;1.70;;
49416;SDS011;35290;39.550;8.786;2023-06-14T13:40:00;3.35;;;1.50;;
49416;SDS011;35290;39.550;8.786;2023-06-14T13:42:26;5.18;;;1.55;;
49416;SDS011;35290;39.550;8.786;2023-06-14T13:44:51;2.78;;;1.40;;
49416;SDS011;35290;39.550;8.786;2023-06-14T13:47:17;1.77;;;1.40;;
49416;SDS011;35290;39.550;8.786;2023-06-14T13:49:43;4.13;;;1.70;;
49416;SDS011;35290;39.550;8.786;2023-06-14T13:52:08;3.83;;;1.58;;
49416;SDS011;35290;39.550;8.786;2023-06-14T13:54:34;4.15;;;1.60;;
49416;SDS011;35290;39.550;8.786;2023-06-14T13:56:59;2.08;;;1.50;;
49416;SDS011;35290;39.550;8.786;2023-06-14T13:59:26;2.10;;;1.30;;
49416;SDS011;35290;39.550;8.786;2023-06-14T14:01:51;2.95;;;1.55;;
49416;SDS011;35290;39.550;8.786;2023-06-14T14:04:17;3.35;;;1.63;;
49416;SDS011;35290;39.550;8.786;2023-06-14T14:06:42;5.75;;;1.50;;
49416;SDS011;35290;39.550;8.786;2023-06-14T14:09:08;6.20;;;1.48;;
49416;SDS011;35290;39.550;8.786;2023-06-14T14:11:35;2.53;;;1.50;;
49416;SDS011;35290;39.550;8.786;2023-06-14T14:14:00;5.13;;;1.38;;
49416;SDS011;35290;39.550;8.786;2023-06-14T14:16:26;2.65;;;1.30;;
49416;SDS011;35290;39.550;8.786;2023-06-14T14:18:52;3.17;;;1.67;;
49416;SDS011;35290;39.550;8.786;2023-06-14T14:21:17;3.40;;;1.40;;
49416;SDS011;35290;39.550;8.786;2023-06-14T14:23:42;4.00;;;1.35;;
49416;SDS011;35290;39.550;8.786;2023-06-14T14:26:09;3.50;;;1.67;;
49416;SDS011;35290;39.550;8.786;2023-06-14T14:28:34;4.05;;;1.33;;
49416;SDS011;35290;39.550;8.786;2023-06-14T14:31:00;3.72;;;1.40;;
49416;SDS011;35290;39.550;8.786;2023-06-14T14:33:26;2.88;;;1.60;;
49416;SDS011;35290;39.550;8.786;2023-06-14T14:35:52;1.85;;;1.67;;
49416;SDS011;35290;39.550;8.786;2023-06-14T14:38:17;4.22;;;1.58;;
49416;SDS011;35290;39.550;8.786;2023-06-14T14:40:43;3.35;;;1.70;;
49416;SDS011;35290;39.550;8.786;2023-06-14T14:43:10;7.40;;;1.50;;
49416;SDS011;35290;39.550;8.786;2023-06-14T14:45:36;4.47;;;1.42;;
49416;SDS011;35290;39.550;8.786;2023-06-14T14:48:01;3.67;;;1.45;;
49416;SDS011;35290;39.550;8.786;2023-06-14T14:50:28;2.75;;;1.60;;
49416;SDS011;35290;39.550;8.786;2023-06-14T14:52:53;5.25;;;2.03;;
49416;SDS011;35290;39.550;8.786;2023-06-14T14:55:19;5.32;;;1.50;;
49416;SDS011;35290;39.550;8.786;2023-06-14T14:57:45;1.83;;;1.30;;
49416;SDS011;35290;39.550;8.786;2023-06-14T15:00:11;2.83;;;1.42;;
49416;SDS011;35290;39.550;8.786;2023-06-14T15:02:37;1.92;;;1.40;;